Time;durP1;ratioP1;P1;durP2;ratioP2;P2;SDS_P1;SDS_P2;PMS_P1;PMS_P2;Temp;Humidity;BMP_temperature;BMP_pressure;BME280_temperature;BME280_humidity;BME280_pressure;Samples;Min_cycle;Max_cycle;Signal;HPM_P1;HPM_P2
2023/03/18 00:09:52;;;;;;;9.98;4.55;;;;;;;9.58;100.00;99838.50;20790492;28;20556;-71
2023/03/18 00:19:54;;;;;;;12.02;6.05;;;;;;;9.62;100.00;99849.72;20788901;28;20131;-71
2023/03/18 00:29:56;;;;;;;14.35;6.45;;;;;;;9.50;100.00;99859.53;20790387;28;20053;-69
2023/03/18 00:39:58;;;;;;;20.95;9.80;;;;;;;9.35;100.00;99861.59;20788665;28;20497;-68
2023/03/18 00:50:00;;;;;;;19.55;9.25;;;;;;;9.20;100.00;99878.44;20793818;28;20057;-69
2023/03/18 01:00:01;;;;;;;19.30;7.85;;;;;;;9.19;100.00;99889.75;20803740;28;20450;-69
2023/03/18 01:10:03;;;;;;;14.45;6.75;;;;;;;9.20;100.00;99883.66;20803212;28;20545;-70
2023/03/18 01:20:04;;;;;;;11.27;5.28;;;;;;;9.25;100.00;99866.16;20801607;28;20045;-69
2023/03/18 01:30:06;;;;;;;11.98;4.90;;;;;;;9.31;100.00;99863.41;20800556;28;20053;-69
2023/03/18 01:40:07;;;;;;;13.48;4.07;;;;;;;9.11;100.00;99862.94;20799174;28;20050;-69
2023/03/18 01:50:09;;;;;;;11.93;4.32;;;;;;;9.00;100.00;99866.56;20799154;28;20208;-69
2023/03/18 02:00:10;;;;;;;8.95;3.67;;;;;;;8.99;100.00;99857.00;20797342;28;20552;-70
2023/03/18 02:10:12;;;;;;;10.35;4.68;;;;;;;8.93;100.00;99854.53;20798164;28;20060;-69
2023/03/18 02:20:13;;;;;;;11.65;3.92;;;;;;;8.99;100.00;99861.38;20796039;28;20557;-69
2023/03/18 02:30:15;;;;;;;8.07;3.08;;;;;;;9.35;92.55;99862.47;20795216;28;20037;-70
2023/03/18 02:40:16;;;;;;;6.82;2.28;;;;;;;9.94;84.00;99857.75;20795628;28;20053;-70
2023/03/18 02:50:19;;;;;;;6.03;2.03;;;;;;;10.29;80.02;99853.50;20794307;28;20156;-70
2023/03/18 03:00:20;;;;;;;5.72;1.90;;;;;;;10.33;79.83;99864.75;20793090;28;20652;-70
2023/03/18 03:10:21;;;;;;;7.97;2.10;;;;;;;10.31;79.71;99870.03;20792162;28;20057;-69
2023/03/18 03:20:23;;;;;;;9.27;2.08;;;;;;;10.35;79.59;99876.03;20790886;28;20053;-70
2023/03/18 03:30:25;;;;;;;7.22;2.67;;;;;;;10.41;79.29;99868.94;20792680;28;20482;-70
2023/03/18 03:40:26;;;;;;;6.50;2.00;;;;;;;10.32;77.77;99882.22;20795028;28;20524;-71
2023/03/18 03:50:28;;;;;;;5.85;1.90;;;;;;;10.17;79.73;99887.78;20806620;28;20042;-69
2023/03/18 04:00:38;;;;;;;6.30;2.05;;;;;;;10.03;80.84;99904.63;20818752;23;20387;-80
2023/03/18 04:10:39;;;;;;;6.65;2.30;;;;;;;9.98;81.43;99893.41;20805566;28;20049;-80
2023/03/18 04:20:41;;;;;;;8.48;2.17;;;;;;;10.01;81.71;99900.31;20808110;28;20067;-80
2023/03/18 04:30:42;;;;;;;4.10;1.60;;;;;;;9.93;82.49;99897.88;20814251;28;20049;-80
2023/03/18 04:51:11;;;;;;;7.95;2.10;;;;;;;9.73;85.42;99903.53;20817988;28;20047;-80
2023/03/18 05:01:12;;;;;;;4.72;1.73;;;;;;;9.44;91.92;99914.53;20814414;28;20104;-79
2023/03/18 05:11:14;;;;;;;5.30;2.20;;;;;;;9.10;94.42;99910.81;20848268;28;20053;-79
2023/03/18 05:21:15;;;;;;;6.70;2.10;;;;;;;8.80;99.74;99925.25;20941396;23;20108;-80
2023/03/18 05:31:17;;;;;;;8.13;1.98;;;;;;;8.57;100.00;99929.06;20817809;28;20045;-79
2023/03/18 05:41:19;;;;;;;7.70;1.75;;;;;;;8.46;100.00;99944.88;20831615;28;20058;-80
2023/03/18 05:51:20;;;;;;;4.35;1.88;;;;;;;8.44;100.00;99951.03;20834556;28;20068;-80
2023/03/18 06:01:23;;;;;;;4.32;2.00;;;;;;;8.40;100.00;99936.28;20832783;28;20045;-79
2023/03/18 06:11:28;;;;;;;7.33;2.70;;;;;;;8.51;100.00;99950.03;20841324;28;20049;-80
2023/03/18 06:21:31;;;;;;;8.70;2.45;;;;;;;8.47;100.00;99954.44;20829715;28;20312;-78
2023/03/18 06:31:33;;;;;;;5.27;2.30;;;;;;;8.46;100.00;99955.31;20800704;28;20041;-79
2023/03/18 06:41:34;;;;;;;10.32;4.38;;;;;;;8.58;100.00;99962.13;20806979;28;20057;-79
2023/03/18 06:51:35;;;;;;;7.18;3.08;;;;;;;8.74;100.00;99963.59;20812055;28;20111;-79
2023/03/18 07:01:37;;;;;;;7.30;3.25;;;;;;;8.99;100.00;99977.13;20812014;28;20049;-79
2023/03/18 07:11:38;;;;;;;6.15;2.70;;;;;;;9.21;100.00;99979.41;20818318;28;20491;-79
2023/03/18 07:21:41;;;;;;;6.30;2.63;;;;;;;9.50;100.00;99982.38;20807550;28;20057;-79
2023/03/18 07:31:43;;;;;;;4.97;2.15;;;;;;;9.73;100.00;99984.56;20804659;28;20461;-79
2023/03/18 07:41:44;;;;;;;6.03;2.60;;;;;;;10.11;100.00;99985.56;20803575;28;20141;-78
2023/03/18 08:02:24;;;;;;;5.53;1.80;;;;;;;11.08;82.35;99992.16;20855979;28;20034;-79
2023/03/18 08:12:25;;;;;;;6.28;2.50;;;;;;;11.59;77.81;99998.72;20840367;28;20056;-79
2023/03/18 08:22:27;;;;;;;6.78;2.00;;;;;;;12.00;70.24;100000.25;20811489;28;20049;-78
2023/03/18 08:32:29;;;;;;;5.57;1.65;;;;;;;12.41;62.09;100000.81;20814705;28;20482;-78
2023/03/18 08:42:30;;;;;;;3.90;1.40;;;;;;;12.88;59.83;99999.38;20811780;28;20100;-79
2023/03/18 08:52:32;;;;;;;5.80;1.58;;;;;;;13.13;56.85;99995.94;20810408;28;20103;-80
2023/03/18 09:02:33;;;;;;;8.30;1.80;;;;;;;13.39;58.02;99988.09;20823172;28;20670;-79
2023/03/18 09:12:35;;;;;;;6.32;1.60;;;;;;;13.49;56.15;99973.72;20802716;28;20068;-79
2023/03/18 09:22:38;;;;;;;5.28;2.00;;;;;;;13.97;55.85;99965.00;20821131;28;20050;-79
2023/03/18 09:32:39;;;;;;;5.57;1.85;;;;;;;14.65;53.53;99958.06;20821466;28;20057;-80
2023/03/18 09:42:42;;;;;;;4.70;1.40;;;;;;;14.72;52.12;99948.16;20817329;28;20050;-80
2023/03/18 09:52:46;;;;;;;4.35;1.80;;;;;;;15.47;48.78;99942.38;20823007;28;20084;-80
2023/03/18 10:02:50;;;;;;;6.22;1.38;;;;;;;15.78;47.84;99928.75;20811731;28;20138;-80
2023/03/18 10:12:56;;;;;;;4.30;1.50;;;;;;;16.03;48.52;99931.97;20808195;28;20076;-80
2023/03/18 10:23:08;;;;;;;4.53;1.20;;;;;;;16.06;46.73;99950.34;20808388;28;20080;-80
2023/03/18 10:33:14;;;;;;;5.55;1.60;;;;;;;15.89;45.81;99947.59;20800691;28;20044;-79
2023/03/18 10:43:32;;;;;;;3.60;1.10;;;;;;;15.60;44.85;99952.34;20811796;28;20041;-79
2023/03/18 10:53:35;;;;;;;7.63;1.60;;;;;;;15.93;44.30;99949.16;20874081;28;20172;-79
2023/03/18 11:03:40;;;;;;;4.40;1.10;;;;;;;15.70;44.52;99941.41;20818185;28;20080;-79
2023/03/18 11:13:47;;;;;;;4.32;1.60;;;;;;;16.14;46.31;99935.00;20812966;28;20387;-79
2023/03/18 11:24:09;;;;;;;7.97;1.58;;;;;;;16.48;43.74;99927.25;20829684;28;20046;-79
2023/03/18 11:34:11;;;;;;;5.60;1.10;;;;;;;16.73;42.52;99917.28;20803457;28;20465;-79
2023/03/18 11:44:13;;;;;;;3.58;1.08;;;;;;;16.71;42.66;99923.53;20799188;28;20045;-79
2023/03/18 11:54:18;;;;;;;6.25;1.40;;;;;;;16.88;42.32;99915.66;20800229;28;20434;-80
2023/03/18 12:04:22;;;;;;;6.13;1.65;;;;;;;16.99;44.45;99893.97;20809078;28;20080;-80
2023/03/18 12:14:26;;;;;;;6.57;1.60;;;;;;;17.43;44.34;99887.25;20877089;23;20450;-77
2023/03/18 12:24:27;;;;;;;5.88;1.40;;;;;;;17.56;41.72;99886.63;20787412;28;20050;-77
2023/03/18 12:34:29;;;;;;;5.03;1.17;;;;;;;17.56;42.97;99879.53;20784886;28;20080;-77
2023/03/18 12:44:32;;;;;;;4.45;1.25;;;;;;;17.80;40.91;99884.50;20788539;28;20068;-76
2023/03/18 12:54:33;;;;;;;4.68;1.50;;;;;;;17.88;40.75;99869.91;20798440;28;20055;-76
2023/03/18 13:04:35;;;;;;;3.60;1.00;;;;;;;17.82;40.01;99872.00;20798780;28;20045;-75
2023/03/18 13:14:36;;;;;;;3.97;0.88;;;;;;;17.43;38.76;99850.19;20798915;28;20057;-75
2023/03/18 13:24:39;;;;;;;4.32;1.00;;;;;;;17.60;40.61;99846.66;20794499;28;20049;-75
2023/03/18 13:34:40;;;;;;;5.40;1.05;;;;;;;17.52;38.63;99838.28;20794824;28;20778;-75
2023/03/18 13:44:42;;;;;;;4.90;1.10;;;;;;;17.95;37.45;99843.91;20798842;28;20049;-75
2023/03/18 13:54:43;;;;;;;7.55;1.77;;;;;;;18.32;36.25;99837.44;20795397;28;20104;-76
2023/03/18 14:04:48;;;;;;;;;;;;;;;18.33;36.23;99836.47;20793613;28;20116;-76
2023/03/18 14:14:50;;;;;;;3.45;0.90;;;;;;;18.53;37.84;99832.69;20793729;28;20381;-74
2023/03/18 14:24:51;;;;;;;4.43;1.05;;;;;;;18.27;36.63;99825.38;20791224;28;20057;-75
2023/03/18 14:34:53;;;;;;;6.38;1.50;;;;;;;18.40;37.61;99815.81;20786427;28;20081;-75
2023/03/18 14:44:54;;;;;;;4.97;1.40;;;;;;;18.01;37.91;99806.50;20783849;28;20046;-74
2023/03/18 14:54:55;;;;;;;3.95;1.45;;;;;;;17.84;38.25;99807.44;20787737;28;20053;-75
2023/03/18 15:04:57;;;;;;;4.28;1.40;;;;;;;17.57;37.36;99799.16;20779682;28;20751;-74
2023/03/18 15:14:58;;;;;;;5.97;1.48;;;;;;;17.31;37.16;99797.94;20784500;28;20061;-76
2023/03/18 15:25:00;;;;;;;5.07;1.40;;;;;;;17.23;38.07;99793.97;20782398;28;20103;-74
2023/03/18 15:35:01;;;;;;;6.20;1.38;;;;;;;17.47;39.19;99786.53;20781381;28;20060;-74
2023/03/18 15:45:04;;;;;;;4.43;1.20;;;;;;;17.22;39.61;99782.53;20788031;28;20494;-75
2023/03/18 15:55:05;;;;;;;4.18;2.00;;;;;;;17.14;40.53;99782.09;20787799;28;20045;-75
2023/03/18 16:05:06;;;;;;;4.18;1.60;;;;;;;17.02;42.28;99777.44;20780654;28;20042;-77
2023/03/18 16:15:08;;;;;;;5.47;2.10;;;;;;;16.64;42.40;99781.09;20781889;28;20061;-74
2023/03/18 16:25:09;;;;;;;6.25;1.60;;;;;;;16.33;43.41;99792.31;20772415;28;20073;-74
2023/03/18 16:35:11;;;;;;;5.18;1.52;;;;;;;16.16;44.47;99795.78;20774336;28;20056;-76
2023/03/18 16:45:13;;;;;;;5.28;1.70;;;;;;;16.00;45.13;99805.41;20764868;28;20049;-76
2023/03/18 16:55:14;;;;;;;7.10;2.00;;;;;;;15.95;46.02;99817.06;20755195;28;20057;-73
2023/03/18 17:05:15;;;;;;;5.32;2.10;;;;;;;15.75;47.29;99825.94;20752793;28;20093;-74
2023/03/18 17:15:17;;;;;;;6.20;2.85;;;;;;;15.62;48.85;99842.31;20765267;28;20057;-73
2023/03/18 17:25:18;;;;;;;7.30;3.20;;;;;;;15.43;49.99;99845.81;20763648;28;20568;-76
2023/03/18 17:35:20;;;;;;;4.18;2.03;;;;;;;15.20;50.18;99841.56;20777705;28;20564;-73
2023/03/18 17:45:21;;;;;;;7.43;2.50;;;;;;;14.83;51.69;99858.97;20782493;28;20525;-75
2023/03/18 17:55:22;;;;;;;16.20;7.07;;;;;;;14.40;58.10;99858.03;20783053;28;20069;-75
2023/03/18 18:05:24;;;;;;;7.78;3.78;;;;;;;13.97;56.54;99869.41;20786841;28;20112;-74
2023/03/18 18:15:26;;;;;;;7.75;3.50;;;;;;;13.76;58.30;99868.44;20790427;28;20497;-73
2023/03/18 18:25:29;;;;;;;8.90;2.90;;;;;;;13.47;60.28;99870.38;20813328;23;20070;-70
2023/03/18 18:35:30;;;;;;;11.18;5.53;;;;;;;13.30;62.20;99867.47;20784833;28;20046;-70
2023/03/18 18:45:32;;;;;;;20.98;8.80;;;;;;;13.19;63.77;99886.22;20780124;28;20331;-69
2023/03/18 18:55:34;;;;;;;14.57;8.65;;;;;;;13.05;64.67;99877.94;20789432;28;20115;-68
2023/03/18 19:05:36;;;;;;;9.80;5.63;;;;;;;12.97;66.09;99869.47;20792034;28;20050;-69
2023/03/18 19:15:38;;;;;;;7.00;4.10;;;;;;;12.83;65.91;99864.66;20795818;28;20111;-69
2023/03/18 19:25:39;;;;;;;10.68;4.10;;;;;;;12.54;68.72;99876.97;20793344;28;20095;-68
2023/03/18 19:35:40;;;;;;;16.50;8.73;;;;;;;12.41;69.93;99885.28;20791912;28;20548;-68
2023/03/18 19:45:43;;;;;;;19.85;10.00;;;;;;;12.30;72.69;99888.25;20790321;28;20409;-68
2023/03/18 19:55:44;;;;;;;15.27;8.18;;;;;;;12.23;72.16;99887.59;20788371;28;20111;-68
2023/03/18 20:05:46;;;;;;;8.55;4.00;;;;;;;12.14;70.09;99902.78;20773590;28;20081;-68
2023/03/18 20:15:47;;;;;;;19.52;8.93;;;;;;;12.11;71.50;99911.59;20784835;28;20065;-69
2023/03/18 20:25:52;;;;;;;17.30;10.40;;;;;;;11.98;75.18;99921.59;20788082;28;20061;-68
2023/03/18 20:35:54;;;;;;;12.73;7.43;;;;;;;11.95;75.19;99921.69;20785780;28;20474;-68
2023/03/18 20:45:56;;;;;;;12.40;7.97;;;;;;;11.94;78.07;99929.59;20783838;28;20049;-68
2023/03/18 20:55:57;;;;;;;20.95;12.68;;;;;;;11.86;78.00;99924.56;20788951;28;20412;-67
2023/03/18 21:05:59;;;;;;;14.85;7.72;;;;;;;11.68;79.94;99931.16;20795024;28;20060;-68
2023/03/18 21:16:00;;;;;;;13.00;8.60;;;;;;;11.45;80.75;99939.66;20803169;28;20695;-68
2023/03/18 21:26:02;;;;;;;19.75;10.27;;;;;;;11.26;81.03;99946.28;20803158;28;20081;-68
2023/03/18 21:36:05;;;;;;;18.23;10.88;;;;;;;11.03;83.42;99952.09;20801908;28;20064;-71
2023/03/18 21:46:06;;;;;;;20.73;10.23;;;;;;;10.77;87.37;99961.44;20802309;28;20112;-72
2023/03/18 21:56:08;;;;;;;11.63;5.30;;;;;;;10.65;86.06;99958.25;20800009;28;20088;-71
2023/03/18 22:06:09;;;;;;;18.63;8.75;;;;;;;10.62;90.49;99959.16;20800227;28;20127;-70
2023/03/18 22:16:11;;;;;;;6.40;2.78;;;;;;;10.33;92.95;99965.06;20800420;28;20068;-70
2023/03/18 22:26:12;;;;;;;6.80;3.20;;;;;;;10.20;95.32;99971.41;20798982;28;20107;-70
2023/03/18 22:36:14;;;;;;;8.68;4.05;;;;;;;10.12;98.66;99982.06;20796114;28;20343;-71
2023/03/18 22:46:15;;;;;;;13.05;5.45;;;;;;;10.15;98.62;99983.72;20798005;28;20061;-70
2023/03/18 22:56:17;;;;;;;8.45;4.32;;;;;;;10.33;96.19;99991.22;20797618;28;20049;-71
2023/03/18 23:06:18;;;;;;;9.57;4.65;;;;;;;10.53;97.28;99970.72;20799468;28;20132;-71
2023/03/18 23:16:20;;;;;;;9.77;4.68;;;;;;;10.51;100.00;99961.19;20803001;28;20061;-70
2023/03/18 23:26:22;;;;;;;13.20;4.68;;;;;;;10.51;100.00;99980.38;20800034;28;20053;-71
2023/03/18 23:36:23;;;;;;;9.15;4.80;;;;;;;10.48;100.00;99985.66;20798036;28;20049;-69
2023/03/18 23:46:24;;;;;;;9.07;4.40;;;;;;;10.55;100.00;99985.53;20800377;28;20516;-70
2023/03/18 23:56:26;;;;;;;9.60;4.03;;;;;;;10.46;100.00;99977.00;20799015;28;20049;-68
